Time;durP1;ratioP1;P1;durP2;ratioP2;P2;SDS_P1;SDS_P2;PMS_P1;PMS_P2;Temp;Humidity;BMP_temperature;BMP_pressure;BME280_temperature;BME280_humidity;BME280_pressure;Samples;Min_cycle;Max_cycle;Signal;HPM_P1;HPM_P2
2021/12/05 00:21:47;;;;;;;67.07;34.83;;;;;;;4.54;74.46;94793.97;5022089;28;20033;-79
2021/12/05 00:24:19;;;;;;;62.03;31.50;;;;;;;4.51;74.88;94791.63;5007977;28;20110;-79
2021/12/05 00:27:04;;;;;;;67.18;33.17;;;;;;;4.52;74.31;94804.75;5007775;28;20048;-79
2021/12/05 00:32:08;;;;;;;63.55;34.05;;;;;;;4.52;74.35;94801.25;5007828;28;20580;-79
2021/12/05 00:55:52;;;;;;;86.50;40.42;;;;;;;4.33;73.25;94782.72;5007662;28;20072;-80
2021/12/05 01:16:39;;;;;;;150.23;53.17;;;;;;;4.10;74.46;94757.63;5008248;28;20034;-78
2021/12/05 01:19:07;;;;;;;114.90;47.85;;;;;;;4.07;74.03;94756.97;5007271;28;20117;-79
2021/12/05 01:21:35;;;;;;;100.68;41.63;;;;;;;4.11;73.94;94756.66;5007395;28;20076;-80
2021/12/05 01:24:16;;;;;;;79.13;36.90;;;;;;;4.10;73.89;94753.16;5008848;28;20137;-79
2021/12/05 01:26:56;;;;;;;80.35;35.20;;;;;;;4.16;73.46;94743.75;5008358;28;20035;-80
2021/12/05 01:34:48;;;;;;;65.55;28.85;;;;;;;4.08;74.29;94736.53;5008400;28;20405;-79
2021/12/05 01:37:25;;;;;;;80.80;36.60;;;;;;;4.12;74.05;94737.06;5008453;28;20026;-80
2021/12/05 01:56:16;;;;;;;76.43;34.70;;;;;;;4.09;73.15;94727.59;5008018;28;20500;-80
2021/12/05 02:38:49;;;;;;;44.80;23.95;;;;;;;4.04;73.29;94751.97;5005539;28;20083;-78
2021/12/05 02:43:47;;;;;;;42.65;21.88;;;;;;;4.03;73.61;94747.63;5007018;28;20057;-78
2021/12/05 02:46:14;;;;;;;40.20;21.67;;;;;;;4.08;73.25;94750.66;5006763;28;20033;-79
2021/12/05 02:48:39;;;;;;;45.25;23.48;;;;;;;4.01;73.94;94749.63;5005573;28;20018;-79
2021/12/05 02:51:09;;;;;;;41.45;21.90;;;;;;;4.02;74.35;94751.28;5006465;28;20505;-80
2021/12/05 02:56:00;;;;;;;43.97;23.55;;;;;;;4.10;74.25;94744.34;5004406;28;20118;-79
2021/12/05 02:58:38;;;;;;;44.78;23.70;;;;;;;4.06;74.91;94743.84;5005651;28;20857;-80
2021/12/05 03:01:18;;;;;;;47.00;23.90;;;;;;;4.00;75.35;94749.78;5004652;28;20074;-80
2021/12/05 03:03:44;;;;;;;47.25;23.17;;;;;;;4.11;74.80;94740.72;5006575;28;20041;-81
2021/12/05 03:06:21;;;;;;;42.80;23.08;;;;;;;4.15;74.36;94739.41;5006827;28;20021;-81
2021/12/05 03:08:49;;;;;;;43.22;22.95;;;;;;;4.15;74.35;94736.75;5005619;28;20500;-80
2021/12/05 03:11:14;;;;;;;39.85;22.00;;;;;;;4.17;74.96;94740.94;5006651;28;20432;-80
2021/12/05 03:13:40;;;;;;;37.35;20.98;;;;;;;4.24;74.57;94729.72;5006514;28;20025;-80
2021/12/05 03:16:06;;;;;;;41.13;21.60;;;;;;;4.28;74.50;94733.72;5006462;28;20391;-80
2021/12/05 03:18:31;;;;;;;40.30;21.92;;;;;;;4.38;74.27;94736.25;5006872;28;20030;-81
2021/12/05 03:20:58;;;;;;;42.45;22.27;;;;;;;4.43;73.79;94741.94;5006987;28;20511;-80
2021/12/05 03:23:25;;;;;;;43.22;22.10;;;;;;;4.46;74.71;94728.34;5006564;28;20505;-79
2021/12/05 03:25:50;;;;;;;39.38;20.75;;;;;;;4.49;74.56;94722.72;5006379;28;20061;-79
2021/12/05 03:28:16;;;;;;;49.53;22.33;;;;;;;4.55;73.88;94727.41;5006422;28;20479;-81
2021/12/05 03:30:41;;;;;;;41.35;21.13;;;;;;;4.57;73.57;94722.78;5004860;28;20030;-79
2021/12/05 03:33:06;;;;;;;40.38;22.05;;;;;;;4.54;74.11;94725.75;5006607;28;20069;-79
2021/12/05 03:35:32;;;;;;;40.75;22.05;;;;;;;4.52;73.63;94713.59;5006081;28;20543;-80
2021/12/05 03:37:58;;;;;;;45.83;23.02;;;;;;;4.53;73.84;94724.06;5006245;28;20032;-81
2021/12/05 03:40:25;;;;;;;38.58;22.05;;;;;;;4.51;74.16;94728.72;5006108;28;20032;-79
2021/12/05 03:42:50;;;;;;;40.47;22.17;;;;;;;4.51;73.69;94725.22;5006524;28;20030;-79
2021/12/05 03:45:19;;;;;;;43.90;22.73;;;;;;;4.51;73.24;94726.06;5006544;28;20022;-80
2021/12/05 03:47:45;;;;;;;45.55;23.80;;;;;;;4.52;73.17;94727.72;5006249;28;20437;-80
2021/12/05 03:50:12;;;;;;;44.70;24.90;;;;;;;4.55;73.16;94722.09;5006541;28;20564;-80
2021/12/05 03:52:37;;;;;;;46.70;24.02;;;;;;;4.55;72.70;94732.72;5006358;28;20105;-80
2021/12/05 03:55:04;;;;;;;42.60;23.15;;;;;;;4.56;73.26;94710.47;5005159;28;20112;-80
2021/12/05 03:57:29;;;;;;;43.65;22.52;;;;;;;4.51;72.82;94719.91;5006468;28;20034;-80
2021/12/05 03:59:55;;;;;;;41.30;22.90;;;;;;;4.49;73.29;94716.56;5006152;28;20495;-80
2021/12/05 04:02:20;;;;;;;45.05;21.85;;;;;;;4.52;73.19;94727.72;5005150;28;20495;-80
2021/12/05 04:04:46;;;;;;;41.97;21.42;;;;;;;4.50;72.63;94728.88;5009399;28;20057;-81
2021/12/05 04:07:13;;;;;;;45.22;22.20;;;;;;;4.50;72.66;94731.53;5008984;28;20040;-80
2021/12/05 04:09:39;;;;;;;41.40;21.80;;;;;;;4.40;73.38;94735.09;4992200;28;20026;-80
2021/12/05 04:12:05;;;;;;;41.78;21.88;;;;;;;4.40;73.37;94729.81;5008836;28;20025;-80
2021/12/05 04:14:39;;;;;;;45.13;21.92;;;;;;;4.42;73.12;94732.28;5009429;28;20527;-80
2021/12/05 04:17:06;;;;;;;42.75;22.30;;;;;;;4.43;72.74;94733.97;5009391;28;20029;-80
2021/12/05 04:19:31;;;;;;;41.97;20.83;;;;;;;4.42;72.96;94727.84;5009443;28;20580;-80
2021/12/05 04:21:57;;;;;;;36.50;18.65;;;;;;;4.46;72.75;94733.66;5009718;28;20032;-80
2021/12/05 04:24:22;;;;;;;39.22;20.08;;;;;;;4.43;73.16;94739.28;5009165;28;20036;-79
2021/12/05 04:26:48;;;;;;;43.15;22.35;;;;;;;4.47;73.12;94740.63;5008210;28;20396;-81
2021/12/05 04:29:13;;;;;;;43.38;22.65;;;;;;;4.53;72.31;94745.31;5008507;28;20026;-80
2021/12/05 04:31:40;;;;;;;40.55;21.25;;;;;;;4.51;73.41;94746.47;5009159;28;20029;-81
2021/12/05 04:34:05;;;;;;;43.33;21.27;;;;;;;4.50;72.88;94742.97;5009023;28;20030;-82
2021/12/05 04:36:31;;;;;;;35.78;20.30;;;;;;;4.52;72.86;94748.97;5009103;28;20531;-80
2021/12/05 04:38:56;;;;;;;49.75;24.23;;;;;;;4.56;72.89;94752.16;5008129;28;20053;-80
2021/12/05 04:41:23;;;;;;;47.90;24.80;;;;;;;4.58;73.42;94745.69;5009134;28;20030;-81
2021/12/05 04:43:50;;;;;;;43.60;21.55;;;;;;;4.52;72.72;94742.81;5008556;28;20026;-79
2021/12/05 04:46:17;;;;;;;38.13;21.15;;;;;;;4.43;74.01;94745.41;5009308;28;20018;-80
2021/12/05 04:48:44;;;;;;;42.00;23.25;;;;;;;4.47;73.40;94753.91;5007089;28;20026;-81
2021/12/05 04:51:09;;;;;;;46.20;24.63;;;;;;;4.52;73.60;94764.91;5008879;28;20101;-81
2021/12/05 04:53:35;;;;;;;45.92;25.35;;;;;;;4.41;73.83;94767.81;5007802;28;20108;-80
2021/12/05 04:56:00;;;;;;;48.70;25.17;;;;;;;4.39;74.08;94772.44;5008718;28;20022;-79
2021/12/05 04:58:26;;;;;;;43.03;23.88;;;;;;;4.37;74.40;94761.97;5008868;28;20034;-80
2021/12/05 05:00:52;;;;;;;43.75;25.58;;;;;;;4.38;74.47;94762.81;5008383;28;20049;-81
2021/12/05 05:03:18;;;;;;;45.35;24.50;;;;;;;4.41;74.14;94759.84;4991164;28;20036;-82
2021/12/05 05:06:01;;;;;;;45.83;23.58;;;;;;;4.30;73.98;94772.41;5006651;28;20038;-80
2021/12/05 05:08:29;;;;;;;49.42;23.15;;;;;;;4.24;73.50;94767.69;5008713;28;20530;-81
2021/12/05 05:10:54;;;;;;;45.72;22.05;;;;;;;4.27;73.92;94778.00;5008720;28;20030;-80
2021/12/05 05:13:20;;;;;;;42.05;23.48;;;;;;;4.33;74.50;94771.25;5008735;28;20076;-80
2021/12/05 05:15:45;;;;;;;45.65;23.67;;;;;;;4.30;74.56;94776.88;5008505;28;20471;-80
2021/12/05 05:18:12;;;;;;;49.92;25.00;;;;;;;4.19;74.35;94777.94;5006906;28;20041;-80
2021/12/05 05:21:06;;;;;;;51.22;24.88;;;;;;;4.20;74.66;94779.59;5008523;28;20060;-82
2021/12/05 05:50:37;;;;;;;44.13;25.20;;;;;;;4.06;75.63;94784.47;5007220;28;20034;-81
2021/12/05 05:53:02;;;;;;;51.10;25.42;;;;;;;4.08;75.75;94779.84;5007517;28;20026;-82
2021/12/05 05:55:28;;;;;;;44.25;23.38;;;;;;;4.27;75.43;94771.88;5008140;28;20030;-81
2021/12/05 06:00:30;;;;;;;40.80;23.60;;;;;;;4.36;75.30;94770.09;5015336;28;20056;-83
2021/12/05 06:05:40;;;;;;;44.15;23.55;;;;;;;4.31;75.69;94795.28;5007894;28;20057;-80
2021/12/05 06:08:06;;;;;;;46.75;24.23;;;;;;;4.29;76.52;94786.66;5008049;28;20484;-81
2021/12/05 06:10:31;;;;;;;39.60;23.27;;;;;;;4.28;75.85;94778.84;5006567;28;20030;-82
2021/12/05 06:12:57;;;;;;;41.17;22.48;;;;;;;4.34;75.61;94788.84;5008084;28;20025;-82
2021/12/05 06:15:26;;;;;;;52.90;24.63;;;;;;;4.42;74.86;94790.72;5007437;28;20038;-80
2021/12/05 06:17:53;;;;;;;44.20;24.40;;;;;;;4.44;74.90;94794.06;5007373;28;20218;-82
2021/12/05 06:20:19;;;;;;;43.55;24.45;;;;;;;4.46;74.46;94797.41;5006415;28;20239;-82
2021/12/05 06:22:45;;;;;;;41.15;23.35;;;;;;;4.49;74.64;94798.91;5007443;28;20035;-80
2021/12/05 06:25:14;;;;;;;43.88;23.15;;;;;;;4.52;74.46;94801.25;5006150;28;20030;-80
2021/12/05 06:27:41;;;;;;;46.70;24.95;;;;;;;4.56;74.61;94813.25;5005850;28;20049;-80
2021/12/05 06:30:12;;;;;;;43.50;24.02;;;;;;;4.63;74.89;94826.72;5006143;28;20080;-82
2021/12/05 06:38:11;;;;;;;47.60;25.20;;;;;;;4.74;74.28;94842.41;5003034;28;20049;-80
2021/12/05 06:46:34;;;;;;;43.67;24.33;;;;;;;4.77;74.17;94849.25;5007207;28;20029;-78
2021/12/05 06:48:51;;;;;;;47.50;24.02;;;;;;;4.82;73.30;94857.59;4990973;28;20493;-78
2021/12/05 06:51:18;;;;;;;45.13;25.38;;;;;;;4.82;73.81;94860.25;4989850;28;20354;-78
2021/12/05 06:53:44;;;;;;;50.33;27.10;;;;;;;4.89;73.79;94860.44;5006780;28;20118;-77
2021/12/05 06:56:09;;;;;;;56.90;25.60;;;;;;;4.97;72.99;94860.50;5007217;28;20412;-77
2021/12/05 06:58:35;;;;;;;49.63;25.77;;;;;;;5.09;72.89;94861.09;4986045;28;20420;-79
2021/12/05 07:01:01;;;;;;;46.17;26.60;;;;;;;5.03;73.52;94851.09;5007090;28;20409;-79
2021/12/05 07:03:26;;;;;;;48.67;26.40;;;;;;;5.07;72.99;94858.59;4989245;28;20061;-78
2021/12/05 07:06:05;;;;;;;48.97;26.30;;;;;;;5.17;73.60;94857.63;5004775;28;20108;-77
2021/12/05 07:08:34;;;;;;;46.92;25.67;;;;;;;5.17;74.04;94861.13;5003156;28;20040;-77
2021/12/05 07:18:43;;;;;;;51.13;28.80;;;;;;;5.34;73.76;94857.72;5004220;28;20030;-78
2021/12/05 07:21:29;;;;;;;52.22;27.77;;;;;;;5.29;73.97;94847.53;5005752;28;20072;-78
2021/12/05 07:40:24;;;;;;;53.13;26.02;;;;;;;5.56;73.69;94835.88;4994583;28;20037;-78
2021/12/05 07:42:57;;;;;;;42.40;24.60;;;;;;;5.62;74.28;94838.88;5010053;28;20030;-77
2021/12/05 07:45:29;;;;;;;41.70;23.45;;;;;;;5.68;73.41;94836.41;5008853;28;20029;-76
2021/12/05 07:47:55;;;;;;;43.00;23.83;;;;;;;5.72;74.23;94831.63;5007302;28;20057;-80
2021/12/05 07:50:30;;;;;;;41.15;22.77;;;;;;;5.74;73.36;94837.59;5008247;28;20033;-79
2021/12/05 07:53:04;;;;;;;47.88;24.92;;;;;;;5.84;73.65;94836.59;5009244;28;20032;-81
2021/12/05 07:55:37;;;;;;;44.97;25.75;;;;;;;5.82;73.46;94826.97;5009509;28;20030;-84
2021/12/05 08:16:55;;;;;;;46.15;27.15;;;;;;;6.11;73.74;94848.03;5009233;28;20030;-84
2021/12/05 08:19:21;;;;;;;50.10;25.67;;;;;;;6.13;73.12;94865.50;5007574;28;20022;-81
2021/12/05 08:21:50;;;;;;;43.80;23.75;;;;;;;6.15;72.80;94857.34;5008800;28;20026;-83
2021/12/05 08:24:15;;;;;;;46.50;25.23;;;;;;;6.15;73.20;94852.03;5010083;28;20105;-84
2021/12/05 08:26:42;;;;;;;42.88;24.23;;;;;;;6.25;72.54;94855.38;5010226;28;20053;-82
2021/12/05 08:29:15;;;;;;;44.15;24.02;;;;;;;6.29;72.43;94851.38;5006154;28;20029;-78
2021/12/05 09:25:44;;;;;;;45.72;26.05;;;;;;;7.82;67.85;94777.03;5006078;28;20084;-78
2021/12/05 09:30:46;;;;;;;31.35;18.48;;;;;;;8.25;66.07;94764.03;5008278;28;20472;-77
2021/12/05 10:06:42;;;;;;;25.98;15.00;;;;;;;8.11;64.81;94714.09;5007317;28;20056;-79
2021/12/05 10:11:40;;;;;;;28.77;17.60;;;;;;;8.12;66.59;94710.41;5007508;28;20551;-78
2021/12/05 10:20:17;;;;;;;31.13;19.25;;;;;;;8.48;64.69;94709.75;5007623;28;20072;-77
2021/12/05 10:33:49;;;;;;;37.28;21.55;;;;;;;8.34;64.74;94703.38;5007292;28;20038;-78
2021/12/05 10:38:49;;;;;;;38.72;24.00;;;;;;;8.34;64.89;94692.69;5007257;28;20080;-78
2021/12/05 10:43:53;;;;;;;29.40;19.10;;;;;;;8.36;64.74;94673.78;5007312;28;20036;-80
2021/12/05 10:46:19;;;;;;;34.90;19.70;;;;;;;8.40;64.67;94675.06;5005358;28;20080;-77
2021/12/05 10:48:47;;;;;;;33.55;19.70;;;;;;;8.48;64.79;94672.31;5005943;28;20288;-78
2021/12/05 10:51:20;;;;;;;30.92;19.52;;;;;;;8.58;64.64;94664.06;5006385;28;20104;-78
2021/12/05 10:53:53;;;;;;;30.67;18.15;;;;;;;8.68;64.39;94650.44;5005855;28;20493;-77
2021/12/05 10:56:20;;;;;;;25.27;16.38;;;;;;;8.78;64.30;94647.50;5006516;28;20025;-78
2021/12/05 10:59:00;;;;;;;29.65;17.70;;;;;;;8.80;64.20;94641.97;5006737;28;20553;-76
2021/12/05 11:01:27;;;;;;;27.98;16.67;;;;;;;8.88;63.88;94639.19;5006684;28;20397;-78
2021/12/05 11:04:02;;;;;;;32.58;18.38;;;;;;;8.88;63.99;94648.03;5006425;28;20037;-78
2021/12/05 11:06:32;;;;;;;29.55;17.80;;;;;;;9.02;63.69;94635.66;5007060;28;20113;-77
2021/12/05 11:09:04;;;;;;;29.77;18.40;;;;;;;9.07;63.55;94634.25;5007032;28;20022;-79
2021/12/05 11:11:30;;;;;;;27.85;17.25;;;;;;;9.22;63.93;94634.25;4989366;28;20385;-77
2021/12/05 11:13:58;;;;;;;27.52;17.08;;;;;;;9.30;63.58;94622.59;5006496;28;20550;-80
2021/12/05 11:16:41;;;;;;;30.42;18.40;;;;;;;9.36;63.24;94620.00;5006477;28;20025;-80
2021/12/05 11:19:12;;;;;;;29.55;18.35;;;;;;;9.57;62.23;94604.13;5007265;28;20034;-80
2021/12/05 11:21:46;;;;;;;32.30;18.23;;;;;;;9.56;62.37;94605.16;5006549;28;20030;-79
2021/12/05 11:24:26;;;;;;;26.67;17.50;;;;;;;9.61;62.81;94598.19;5006494;28;20034;-78
2021/12/05 11:27:15;;;;;;;32.45;16.10;;;;;;;9.80;61.96;94605.78;5006353;28;20397;-78
2021/12/05 11:29:51;;;;;;;23.13;13.57;;;;;;;9.88;61.52;94600.31;5006402;28;20091;-79
2021/12/05 11:32:19;;;;;;;23.65;14.02;;;;;;;9.81;61.58;94591.38;5006783;28;20033;-79
2021/12/05 11:34:45;;;;;;;22.27;13.30;;;;;;;9.83;60.96;94598.19;5004772;28;20053;-77
2021/12/05 11:37:11;;;;;;;22.70;14.13;;;;;;;9.80;61.06;94589.72;5006556;28;20437;-78
2021/12/05 11:39:36;;;;;;;25.05;13.70;;;;;;;9.94;61.08;94583.44;5005733;28;20029;-77
2021/12/05 11:42:09;;;;;;;24.20;14.18;;;;;;;10.08;60.89;94578.19;5006522;28;20064;-79
2021/12/05 11:44:35;;;;;;;20.88;13.00;;;;;;;10.09;60.80;94569.13;5005002;28;20033;-77
2021/12/05 11:47:10;;;;;;;21.15;13.05;;;;;;;10.17;60.19;94566.31;5006158;28;20014;-76
2021/12/05 11:49:36;;;;;;;20.70;12.68;;;;;;;10.23;60.21;94559.31;5005489;28;20100;-77
2021/12/05 11:52:02;;;;;;;21.95;12.95;;;;;;;10.25;59.88;94557.28;5006137;28;20481;-81
2021/12/05 11:54:39;;;;;;;22.85;13.13;;;;;;;10.20;60.33;94557.88;5006265;28;20347;-79
2021/12/05 11:57:29;;;;;;;19.48;12.43;;;;;;;10.36;60.15;94561.25;5004648;28;20350;-79
2021/12/05 12:00:03;;;;;;;21.65;12.75;;;;;;;10.37;59.66;94553.03;5006204;28;20034;-79
2021/12/05 12:02:34;;;;;;;22.42;12.45;;;;;;;10.32;59.96;94543.91;5006465;28;20030;-78
2021/12/05 12:04:59;;;;;;;18.38;11.48;;;;;;;10.35;60.02;94538.19;5005744;28;20052;-76
2021/12/05 12:07:40;;;;;;;18.33;12.23;;;;;;;10.45;59.42;94540.47;5005975;28;20038;-77
2021/12/05 12:10:17;;;;;;;19.88;11.63;;;;;;;10.53;59.35;94536.84;5005705;28;20041;-78
2021/12/05 12:12:51;;;;;;;19.50;11.63;;;;;;;10.55;59.71;94534.78;5005972;28;20399;-78
2021/12/05 12:15:16;;;;;;;20.42;11.30;;;;;;;10.59;59.17;94536.06;5006164;28;20025;-78
2021/12/05 12:17:43;;;;;;;15.02;9.10;;;;;;;10.67;58.22;94535.06;5004123;28;20421;-78
2021/12/05 12:20:11;;;;;;;15.32;8.48;;;;;;;10.70;58.06;94535.50;5004777;28;20030;-78
2021/12/05 12:22:36;;;;;;;11.10;7.72;;;;;;;10.79;57.49;94536.13;5005712;28;20041;-78
2021/12/05 12:25:06;;;;;;;13.15;7.85;;;;;;;10.84;56.85;94527.47;5007090;28;20022;-78
2021/12/05 12:27:31;;;;;;;14.63;7.95;;;;;;;10.87;56.70;94519.03;5009100;28;20488;-78
2021/12/05 12:29:57;;;;;;;15.35;8.20;;;;;;;10.84;56.58;94519.44;5009370;28;20030;-77
2021/12/05 12:32:26;;;;;;;12.65;7.78;;;;;;;10.88;56.40;94523.38;4991908;28;20030;-78
2021/12/05 12:35:07;;;;;;;12.63;8.70;;;;;;;10.94;56.82;94514.53;5007704;28;20045;-81
2021/12/05 12:37:32;;;;;;;12.65;8.45;;;;;;;11.04;56.56;94506.09;4991958;28;20026;-77
2021/12/05 12:39:58;;;;;;;11.73;8.13;;;;;;;11.10;55.74;94515.19;4991193;28;20041;-77
2021/12/05 12:42:25;;;;;;;15.93;8.27;;;;;;;11.12;55.87;94518.50;5009424;28;20030;-78
2021/12/05 12:45:03;;;;;;;13.75;8.38;;;;;;;11.12;55.45;94519.28;5008550;28;20627;-78
2021/12/05 12:47:41;;;;;;;13.02;8.52;;;;;;;11.17;55.59;94513.31;5009133;28;20104;-79
2021/12/05 12:50:21;;;;;;;10.48;7.35;;;;;;;11.16;55.23;94511.69;5009533;28;20412;-77
2021/12/05 12:53:14;;;;;;;13.43;7.40;;;;;;;11.25;55.38;94504.28;5008667;28;20030;-76
2021/12/05 12:56:02;;;;;;;13.95;8.38;;;;;;;11.32;55.29;94502.41;5009978;28;20101;-77
2021/12/05 12:58:51;;;;;;;12.00;7.72;;;;;;;11.32;54.97;94501.56;5009012;28;20416;-79
2021/12/05 13:01:34;;;;;;;13.10;8.27;;;;;;;11.41;54.39;94505.75;5007381;28;20046;-77
2021/12/05 13:04:29;;;;;;;14.80;8.32;;;;;;;11.46;54.82;94513.97;5008642;28;20049;-77
2021/12/05 13:12:39;;;;;;;14.75;8.38;;;;;;;11.62;54.76;94507.38;5009164;28;20052;-77
2021/12/05 13:15:34;;;;;;;9.88;7.70;;;;;;;11.70;54.42;94502.84;5008198;28;20041;-78
2021/12/05 13:18:08;;;;;;;17.85;8.80;;;;;;;11.75;54.83;94495.81;5008345;28;20042;-77
2021/12/05 13:20:42;;;;;;;13.00;8.10;;;;;;;11.69;55.21;94491.28;5008874;28;20500;-78
2021/12/05 13:23:16;;;;;;;14.13;9.15;;;;;;;11.64;55.34;94495.63;5008102;28;20045;-78
2021/12/05 13:26:29;;;;;;;14.95;8.60;;;;;;;11.71;55.36;94485.69;5008593;28;20029;-78
2021/12/05 13:29:17;;;;;;;12.85;8.45;;;;;;;11.63;55.30;94492.09;5025661;28;20061;-78
2021/12/05 13:32:00;;;;;;;14.63;7.75;;;;;;;11.49;55.33;94491.28;5008369;28;20032;-78
2021/12/05 13:34:41;;;;;;;13.27;8.82;;;;;;;11.42;54.99;94485.91;5008550;28;20404;-76
2021/12/05 13:37:06;;;;;;;11.80;8.45;;;;;;;11.38;55.39;94485.47;5006749;28;20530;-76
2021/12/05 13:39:48;;;;;;;12.07;7.70;;;;;;;11.34;55.21;94492.31;5007857;28;20038;-77
2021/12/05 13:42:51;;;;;;;12.45;7.25;;;;;;;11.23;54.85;94488.38;5007318;28;20632;-77
2021/12/05 13:45:25;;;;;;;10.88;7.32;;;;;;;11.18;54.64;94493.53;5016326;28;20056;-78
2021/12/05 13:47:53;;;;;;;11.80;7.30;;;;;;;10.98;55.22;94491.63;5007899;28;20034;-78
2021/12/05 13:50:19;;;;;;;9.90;6.90;;;;;;;10.92;55.67;94486.22;5007987;28;20044;-78
2021/12/05 13:53:02;;;;;;;12.65;8.32;;;;;;;10.79;56.07;94490.53;5007765;28;20022;-77
2021/12/05 13:56:02;;;;;;;11.52;8.00;;;;;;;10.58;56.87;94480.75;5008249;28;20073;-78
2021/12/05 13:58:38;;;;;;;11.13;7.97;;;;;;;10.32;57.24;94477.72;5007497;28;20125;-79
2021/12/05 14:01:19;;;;;;;13.13;8.65;;;;;;;10.20;57.80;94469.44;5007460;28;20037;-78
2021/12/05 14:04:00;;;;;;;12.35;8.23;;;;;;;10.10;58.12;94471.66;5008117;28;20022;-78
2021/12/05 14:06:40;;;;;;;13.85;9.48;;;;;;;9.98;58.86;94482.91;5007475;28;20530;-77
2021/12/05 14:09:19;;;;;;;13.43;7.93;;;;;;;9.75;58.90;94481.31;5007619;28;20061;-78
2021/12/05 14:12:13;;;;;;;13.57;8.75;;;;;;;9.64;59.14;94489.91;5006414;28;20428;-78
2021/12/05 14:14:41;;;;;;;13.88;8.68;;;;;;;9.55;59.15;94488.38;5006322;28;20109;-79
2021/12/05 14:17:15;;;;;;;12.48;8.50;;;;;;;9.43;59.79;94485.41;5002929;28;20034;-78
2021/12/05 14:19:42;;;;;;;15.68;9.85;;;;;;;9.42;59.90;94478.38;5005918;28;20022;-78
2021/12/05 14:22:09;;;;;;;13.65;9.35;;;;;;;9.31;60.03;94482.44;5002413;28;20033;-78
2021/12/05 14:24:37;;;;;;;17.25;9.82;;;;;;;9.11;60.87;94497.28;4996438;28;20030;-77
2021/12/05 14:27:06;;;;;;;15.85;9.68;;;;;;;8.86;61.56;94488.78;5001852;28;20029;-78
2021/12/05 14:29:33;;;;;;;14.70;9.65;;;;;;;8.83;61.62;94502.53;4999578;28;20510;-77
2021/12/05 14:32:29;;;;;;;14.95;9.98;;;;;;;8.70;62.05;94498.72;4992482;28;20038;-77
2021/12/05 14:34:57;;;;;;;18.00;10.70;;;;;;;8.55;62.86;94493.41;5003888;28;20038;-77
2021/12/05 14:37:24;;;;;;;17.23;9.82;;;;;;;8.66;62.46;94497.41;5003969;28;20042;-78
2021/12/05 14:39:55;;;;;;;14.65;9.88;;;;;;;8.68;62.34;94508.75;5006810;28;20034;-77
2021/12/05 14:42:24;;;;;;;15.23;9.15;;;;;;;8.70;62.36;94508.56;5003855;28;20484;-78
2021/12/05 14:45:07;;;;;;;17.75;10.55;;;;;;;8.64;62.90;94504.81;5003731;28;20034;-78
2021/12/05 14:47:35;;;;;;;22.60;12.15;;;;;;;8.55;63.29;94501.41;5004643;28;20025;-77
2021/12/05 14:50:05;;;;;;;15.73;10.40;;;;;;;8.53;63.43;94512.25;5004587;28;20032;-78
2021/12/05 14:52:33;;;;;;;17.73;10.18;;;;;;;8.52;63.69;94513.28;5005602;28;20060;-78
2021/12/05 14:55:00;;;;;;;16.23;10.77;;;;;;;8.52;63.10;94515.13;5006368;28;20496;-77
2021/12/05 14:57:28;;;;;;;14.82;9.85;;;;;;;8.57;63.13;94512.75;5006228;28;20033;-78
2021/12/05 15:00:00;;;;;;;15.82;9.95;;;;;;;8.46;63.13;94514.03;5004871;28;20468;-78
2021/12/05 15:02:27;;;;;;;18.00;12.38;;;;;;;8.35;63.55;94517.19;5005745;28;20046;-78
2021/12/05 15:04:53;;;;;;;18.08;12.07;;;;;;;8.25;63.77;94510.25;5005811;28;20091;-76
2021/12/05 15:07:22;;;;;;;19.88;11.48;;;;;;;8.20;63.78;94520.69;5007741;28;20030;-77
2021/12/05 15:09:53;;;;;;;19.15;11.80;;;;;;;8.21;63.39;94518.81;5007929;28;20032;-80
2021/12/05 15:12:27;;;;;;;18.20;11.52;;;;;;;8.00;64.14;94518.56;4991123;28;20026;-78
2021/12/05 15:14:55;;;;;;;19.55;11.15;;;;;;;7.96;64.25;94514.59;5006751;28;20046;-78
2021/12/05 15:17:28;;;;;;;17.38;10.70;;;;;;;7.87;64.74;94526.34;5005240;28;20022;-77
2021/12/05 15:19:58;;;;;;;13.23;8.45;;;;;;;7.77;64.70;94521.31;4988904;28;20113;-77
2021/12/05 15:22:23;;;;;;;17.52;10.45;;;;;;;7.75;64.67;94526.00;5006677;28;20029;-79
2021/12/05 15:25:09;;;;;;;17.45;10.38;;;;;;;7.72;65.15;94523.69;5006361;28;20384;-78
2021/12/05 15:27:35;;;;;;;19.13;10.93;;;;;;;7.61;65.23;94530.31;5006212;28;20030;-78
2021/12/05 15:30:07;;;;;;;18.27;10.80;;;;;;;7.50;65.63;94532.38;5007177;28;20037;-78
2021/12/05 15:32:33;;;;;;;17.33;11.38;;;;;;;7.29;66.36;94531.22;5006123;28;20037;-79
2021/12/05 15:35:01;;;;;;;19.50;10.93;;;;;;;7.17;67.01;94519.31;5006607;28;20037;-77
2021/12/05 15:37:26;;;;;;;19.33;11.93;;;;;;;7.07;67.27;94532.03;5005836;28;20494;-77
2021/12/05 15:39:53;;;;;;;17.88;10.98;;;;;;;7.02;67.46;94533.41;5006783;28;20515;-78
2021/12/05 15:42:26;;;;;;;20.42;12.25;;;;;;;7.00;67.32;94534.59;5004964;28;20026;-76
2021/12/05 15:44:53;;;;;;;21.58;11.20;;;;;;;6.92;67.93;94544.31;5006341;28;20030;-79
2021/12/05 15:47:24;;;;;;;23.42;12.02;;;;;;;6.89;67.94;94562.47;5006677;28;20026;-78
2021/12/05 15:49:57;;;;;;;18.40;11.57;;;;;;;6.90;67.97;94564.97;5004903;28;20419;-82
2021/12/05 15:52:44;;;;;;;18.65;11.85;;;;;;;6.79;68.51;94568.88;5006768;28;20030;-78
2021/12/05 15:55:40;;;;;;;20.75;11.15;;;;;;;6.76;68.37;94574.56;5004577;28;20133;-78
2021/12/05 15:58:08;;;;;;;17.30;11.00;;;;;;;6.78;68.80;94587.69;5005858;28;20531;-77
2021/12/05 16:00:44;;;;;;;18.35;10.57;;;;;;;6.68;68.48;94585.25;5009234;28;20113;-78
2021/12/05 16:03:14;;;;;;;21.70;11.38;;;;;;;6.62;68.87;94580.63;5009712;28;20643;-79
2021/12/05 16:05:41;;;;;;;20.23;11.40;;;;;;;6.49;69.70;94605.97;5009734;28;20099;-77
2021/12/05 16:08:08;;;;;;;20.17;11.57;;;;;;;6.50;69.34;94602.31;5008271;28;20030;-78
2021/12/05 16:10:35;;;;;;;16.77;10.57;;;;;;;6.43;69.47;94596.00;5009527;28;20045;-79
2021/12/05 16:13:08;;;;;;;19.92;11.75;;;;;;;6.46;69.89;94593.00;5008695;28;20450;-78
2021/12/05 16:15:34;;;;;;;18.92;11.75;;;;;;;6.49;69.52;94590.00;5008101;28;20490;-78
2021/12/05 16:18:00;;;;;;;20.52;11.68;;;;;;;6.54;69.65;94594.81;5010269;28;20030;-77
2021/12/05 16:20:36;;;;;;;20.70;11.10;;;;;;;6.45;69.43;94591.31;5009696;28;20037;-78
2021/12/05 16:23:08;;;;;;;20.60;12.57;;;;;;;6.47;69.45;94586.66;5008476;28;20484;-78
2021/12/05 16:25:35;;;;;;;20.00;12.25;;;;;;;6.43;69.64;94580.03;5009201;28;20531;-77
2021/12/05 16:28:02;;;;;;;19.75;11.50;;;;;;;6.39;69.59;94581.38;5009497;28;20030;-76
2021/12/05 16:30:32;;;;;;;20.52;11.93;;;;;;;6.35;69.74;94577.41;5008618;28;20057;-77
2021/12/05 16:32:58;;;;;;;19.10;11.38;;;;;;;6.36;69.75;94574.56;5008987;28;20032;-78
2021/12/05 16:35:28;;;;;;;19.80;11.90;;;;;;;6.35;69.92;94591.53;5009604;28;20034;-78
2021/12/05 16:37:53;;;;;;;21.48;12.50;;;;;;;6.35;69.75;94577.41;5008552;28;20053;-77
2021/12/05 16:40:18;;;;;;;21.42;11.75;;;;;;;6.15;70.22;94583.09;5009667;28;20022;-78
2021/12/05 16:42:44;;;;;;;19.85;11.73;;;;;;;6.18;70.50;94583.59;5009362;28;20041;-78
2021/12/05 16:45:11;;;;;;;17.92;11.10;;;;;;;6.08;71.33;94576.81;5009358;28;20022;-77
2021/12/05 16:47:36;;;;;;;19.73;11.93;;;;;;;6.06;71.43;94582.31;5009760;28;20465;-78
2021/12/05 16:50:03;;;;;;;21.63;13.32;;;;;;;6.08;70.86;94582.13;5008867;28;20060;-79
2021/12/05 16:52:35;;;;;;;19.67;12.93;;;;;;;6.04;70.88;94587.81;5008070;28;20026;-79
2021/12/05 16:55:25;;;;;;;22.42;13.13;;;;;;;5.98;71.00;94574.31;4991992;28;20033;-78
2021/12/05 16:58:14;;;;;;;22.48;11.68;;;;;;;5.88;71.48;94582.47;5008885;28;20500;-77
2021/12/05 17:00:40;;;;;;;21.05;11.65;;;;;;;5.87;71.52;94591.47;5009670;28;20036;-77
2021/12/05 17:03:07;;;;;;;23.42;12.25;;;;;;;5.77;72.28;94589.78;5007224;28;20322;-77
2021/12/05 17:05:43;;;;;;;21.85;11.93;;;;;;;5.77;72.25;94592.44;5008864;28;20042;-79
2021/12/05 17:08:14;;;;;;;23.88;12.88;;;;;;;5.78;71.95;94596.78;5008490;28;20042;-79
2021/12/05 17:10:44;;;;;;;22.25;12.32;;;;;;;5.77;71.55;94608.41;5007413;28;20397;-78
2021/12/05 17:13:12;;;;;;;25.10;13.50;;;;;;;5.73;71.92;94604.44;5007356;28;20492;-77
2021/12/05 17:16:02;;;;;;;20.38;12.48;;;;;;;5.72;72.65;94599.28;5008574;28;20418;-78
2021/12/05 17:19:07;;;;;;;27.13;13.70;;;;;;;5.67;72.74;94602.44;5008168;28;20034;-79